createdAt,value
2019-04-27T00:00:32.469Z,81.22
2019-04-27T00:01:29.745Z,81.41
2019-04-27T00:02:29.785Z,81.13
2019-04-27T00:03:29.810Z,80.93
2019-04-27T00:04:29.843Z,80.84
2019-04-27T00:05:32.490Z,80.17
2019-04-27T00:06:29.908Z,80.46
2019-04-27T00:07:29.941Z,81.13
2019-04-27T00:08:35.182Z,81.60
2019-04-27T00:09:30.004Z,81.32
2019-04-27T00:10:30.041Z,81.32
2019-04-27T00:11:30.072Z,81.13
2019-04-27T00:12:30.106Z,80.84
2019-04-27T00:13:30.143Z,81.03
2019-04-27T00:14:30.170Z,81.70
2019-04-27T00:15:31.182Z,80.93
2019-04-27T00:16:30.235Z,81.22
2019-04-27T00:17:44.818Z,81.60
2019-04-27T00:18:30.300Z,81.03
2019-04-27T00:19:31.837Z,81.13
2019-04-27T00:20:30.366Z,81.22
2019-04-27T00:21:30.397Z,80.84
2019-04-27T00:22:30.432Z,80.27
2019-04-27T00:23:30.466Z,80.17
2019-04-27T00:24:30.495Z,80.46
2019-04-27T00:25:30.526Z,80.84
2019-04-27T00:26:30.560Z,80.84
2019-04-27T00:27:30.593Z,80.84
2019-04-27T00:28:30.625Z,80.84
2019-04-27T00:29:30.657Z,81.32
2019-04-27T00:30:30.689Z,80.46
2019-04-27T00:31:30.723Z,80.74
2019-04-27T00:32:30.755Z,81.03
2019-04-27T00:33:30.787Z,81.13
2019-04-27T00:34:30.821Z,80.65
2019-04-27T00:35:30.854Z,81.32
2019-04-27T00:36:30.887Z,81.32
2019-04-27T00:37:30.917Z,80.55
2019-04-27T00:38:30.951Z,80.51
2019-04-27T00:39:30.985Z,80.17
2019-04-27T00:40:31.019Z,80.55
2019-04-27T00:41:31.049Z,80.84
2019-04-27T00:42:31.082Z,81.41
2019-04-27T00:43:32.757Z,81.03
2019-04-27T00:44:31.162Z,80.65
2019-04-27T00:45:31.179Z,79.98
2019-04-27T00:46:32.984Z,80.07
2019-04-27T00:47:32.749Z,79.79
2019-04-27T00:48:31.277Z,79.88
2019-04-27T00:49:32.845Z,80.46
2019-04-27T00:50:31.341Z,80.55
2019-04-27T00:51:33.171Z,80.46
2019-04-27T00:52:32.585Z,79.88
2019-04-27T00:53:31.441Z,79.98
2019-04-27T00:54:31.473Z,79.88
2019-04-27T00:55:33.289Z,80.07
2019-04-27T00:56:31.536Z,80.07
2019-04-27T00:57:33.094Z,80.07
2019-04-27T00:58:32.992Z,79.88
2019-04-27T00:59:33.055Z,79.79
2019-04-27T01:00:31.670Z,80.07
2019-04-27T01:01:33.302Z,79.69
2019-04-27T01:02:33.194Z,79.88
2019-04-27T01:03:33.238Z,80.27
2019-04-27T01:04:31.799Z,80.55
2019-04-27T01:05:31.832Z,80.17
2019-04-27T01:06:33.517Z,80.36
2019-04-27T01:07:33.402Z,79.69
2019-04-27T01:08:31.928Z,80.07
2019-04-27T01:09:33.768Z,80.55
2019-04-27T01:10:33.495Z,80.17
2019-04-27T01:11:33.306Z,79.79
2019-04-27T01:12:33.402Z,80.17
2019-04-27T01:13:34.762Z,80.17
2019-04-27T01:14:32.125Z,79.88
2019-04-27T01:17:12.986Z,79.98
2019-04-27T01:18:15.434Z,79.98
2019-04-27T01:20:15.192Z,80.17
2019-04-27T01:21:15.183Z,80.55
2019-04-27T01:23:07.184Z,80.46
2019-04-27T01:24:08.904Z,80.84
2019-04-27T01:26:09.738Z,80.07
2019-04-27T01:27:09.382Z,80.36
2019-04-27T01:29:11.525Z,80.46
2019-04-27T01:30:11.552Z,80.74
2019-04-27T01:32:13.693Z,80.61
2019-04-27T01:33:13.723Z,80.41
2019-04-27T01:35:15.870Z,79.94
2019-04-27T01:36:15.895Z,80.99
2019-04-27T01:38:19.174Z,81.56
2019-04-27T01:39:18.837Z,80.61
2019-04-27T01:41:20.207Z,80.99
2019-04-27T01:42:20.234Z,80.65
2019-04-27T01:44:22.382Z,81.56
2019-04-27T01:45:22.405Z,80.80
2019-04-27T01:47:24.576Z,81.66
2019-04-27T01:48:25.893Z,80.99
2019-04-27T01:50:26.722Z,80.99
2019-04-27T01:51:26.748Z,80.99
2019-04-27T01:53:19.104Z,81.47
2019-04-27T01:54:19.398Z,81.56
2019-04-27T01:56:20.943Z,82.23
2019-04-27T01:57:20.950Z,81.95
2019-04-27T01:59:23.091Z,81.85
2019-04-27T02:00:23.120Z,81.56
2019-04-27T02:02:25.263Z,81.56
2019-04-27T02:03:25.291Z,81.56
2019-04-27T02:05:28.919Z,81.79
2019-04-27T02:06:27.464Z,81.66
2019-04-27T02:08:29.606Z,81.95
2019-04-27T02:09:29.635Z,81.56
2019-04-27T02:11:31.815Z,82.61
2019-04-27T02:12:31.806Z,82.81
2019-04-27T02:14:33.948Z,82.71
2019-04-27T02:15:33.975Z,82.42
2019-04-27T02:17:36.118Z,83.18
2019-04-27T02:18:38.216Z,83.57
2019-04-27T02:20:38.787Z,83.00
2019-04-27T02:21:39.197Z,83.86
2019-04-27T02:23:30.337Z,83.81
2019-04-27T02:24:30.349Z,83.38
2019-04-27T02:26:32.491Z,83.95
2019-04-27T02:27:32.521Z,83.95
2019-04-27T02:29:34.679Z,82.76
2019-04-27T02:30:34.689Z,83.43
2019-04-27T02:32:39.537Z,83.24
2019-04-27T02:33:36.865Z,83.43
2019-04-27T02:35:41.824Z,82.48
2019-04-27T02:36:39.276Z,82.00
2019-04-27T02:38:41.209Z,82.09
2019-04-27T02:39:41.213Z,82.38
2019-04-27T02:41:43.349Z,82.76
2019-04-27T02:42:43.402Z,82.95
2019-04-27T02:44:45.514Z,82.57
2019-04-27T02:45:45.545Z,82.67
2019-04-27T02:47:49.047Z,83.34
2019-04-27T02:48:58.631Z,82.86
2019-04-27T02:50:50.139Z,82.76
2019-04-27T02:51:49.883Z,82.09
2019-04-27T02:53:41.935Z,81.33
2019-04-27T02:54:41.916Z,80.95
2019-04-27T02:56:44.061Z,81.52
2019-04-27T02:57:44.086Z,81.62
2019-04-27T02:59:46.246Z,81.52
2019-04-27T03:00:46.258Z,81.71
2019-04-27T03:02:50.876Z,81.43
2019-04-27T03:03:50.222Z,81.62
2019-04-27T03:05:50.613Z,82.19
2019-04-27T03:06:50.598Z,82.00
2019-04-27T03:08:54.261Z,81.52
2019-04-27T03:09:52.769Z,80.85
2019-04-27T03:11:54.913Z,81.24
2019-04-27T03:12:54.941Z,81.24
2019-04-27T03:14:57.084Z,80.66
2019-04-27T03:15:57.109Z,80.76
2019-04-27T03:17:59.767Z,80.66
2019-04-27T03:19:13.508Z,80.38
2019-04-27T03:21:01.425Z,80.47
2019-04-27T03:22:01.452Z,79.99
2019-04-27T03:24:03.598Z,79.80
2019-04-27T03:25:03.626Z,80.19
2019-04-27T03:27:06.814Z,80.57
2019-04-27T03:28:06.816Z,80.38
2019-04-27T03:30:12.054Z,80.66
2019-04-27T03:31:13.657Z,80.57
2019-04-27T03:33:02.995Z,81.14
2019-04-27T03:34:05.089Z,81.62
2019-04-27T03:36:03.387Z,81.81
2019-04-27T03:37:03.189Z,81.52
2019-04-27T03:39:05.696Z,81.33
2019-04-27T03:40:05.362Z,81.62
2019-04-27T03:42:10.151Z,80.95
2019-04-27T03:43:09.863Z,81.52
2019-04-27T03:45:10.867Z,81.43
2019-04-27T03:46:10.476Z,80.85
2019-04-27T03:48:01.985Z,81.90
2019-04-27T03:49:02.007Z,81.33
2019-04-27T03:51:04.187Z,81.43
2019-04-27T03:52:04.174Z,81.86
2019-04-27T03:54:06.314Z,81.86
2019-04-27T03:55:06.341Z,82.06
2019-04-27T03:57:09.889Z,82.15
2019-04-27T03:58:11.757Z,82.06
2019-04-27T04:00:11.571Z,82.19
2019-04-27T04:01:11.596Z,82.00
2019-04-27T04:03:13.741Z,82.00
2019-04-27T04:04:13.773Z,82.00
2019-04-27T04:06:16.011Z,82.00
2019-04-27T04:07:16.041Z,81.81
2019-04-27T04:09:19.560Z,82.29
2019-04-27T04:10:19.825Z,82.09
2019-04-27T04:12:21.297Z,82.38
2019-04-27T04:13:22.657Z,82.09
2019-04-27T04:15:23.565Z,82.00
2019-04-27T04:16:23.584Z,82.09
2019-04-27T04:18:15.586Z,82.29
2019-04-27T04:19:15.610Z,82.06
2019-04-27T04:21:19.462Z,82.72
2019-04-27T04:22:19.845Z,82.43
2019-04-27T04:24:20.171Z,82.43
2019-04-27T04:25:20.095Z,82.15
2019-04-27T04:27:22.096Z,82.91
2019-04-27T04:28:22.121Z,82.43
2019-04-27T04:30:24.307Z,82.34
2019-04-27T04:31:24.295Z,83.20
2019-04-27T04:33:26.436Z,82.63
2019-04-27T04:34:26.462Z,82.53
2019-04-27T04:36:30.103Z,83.11
2019-04-27T04:37:29.584Z,83.20
2019-04-27T04:39:30.880Z,83.01
2019-04-27T04:40:31.043Z,82.82
2019-04-27T04:42:33.049Z,82.91
2019-04-27T04:43:33.075Z,83.24
2019-04-27T04:45:35.225Z,82.95
2019-04-27T04:46:35.245Z,82.72
2019-04-27T04:48:27.255Z,83.53
2019-04-27T04:49:29.572Z,82.95
2019-04-27T04:51:30.321Z,82.57
2019-04-27T04:52:29.597Z,82.95
2019-04-27T04:54:31.598Z,82.76
2019-04-27T04:55:31.626Z,82.67
2019-04-27T04:57:33.795Z,83.34
2019-04-27T04:58:33.790Z,82.95
2019-04-27T05:00:36.947Z,83.14
2019-04-27T05:01:36.974Z,83.53
2019-04-27T05:03:39.244Z,83.43
2019-04-27T05:04:39.156Z,83.14
2019-04-27T05:06:41.323Z,83.24
2019-04-27T05:07:41.332Z,83.53
2019-04-27T05:09:43.493Z,83.43
2019-04-27T05:10:43.520Z,83.34
2019-04-27T05:12:45.744Z,82.76
2019-04-27T05:13:45.771Z,82.95
2019-04-27T05:15:48.694Z,83.24
2019-04-27T05:16:48.955Z,83.43
2019-04-27T05:18:40.064Z,82.86
2019-04-27T05:19:40.078Z,83.53
2019-04-27T05:21:42.236Z,83.43
2019-04-27T05:22:42.243Z,82.95
2019-04-27T05:24:44.391Z,83.53
2019-04-27T05:25:44.419Z,83.53
2019-04-27T05:27:46.664Z,83.43
2019-04-27T05:28:46.690Z,83.43
2019-04-27T05:30:49.079Z,83.24
2019-04-27T05:31:49.145Z,83.34
2019-04-27T05:33:51.019Z,84.00
2019-04-27T05:34:51.030Z,83.72
2019-04-27T05:36:54.119Z,83.91
2019-04-27T05:37:54.145Z,83.62
2019-04-27T05:39:56.269Z,83.62
2019-04-27T05:40:56.292Z,83.72
2019-04-27T05:42:58.623Z,83.24
2019-04-27T05:43:59.126Z,83.24
2019-04-27T05:46:01.147Z,83.24
2019-04-27T05:47:00.633Z,82.86
2019-04-27T05:48:52.638Z,83.43
2019-04-27T05:49:52.666Z,83.43
2019-04-27T05:51:54.820Z,83.24
2019-04-27T05:52:54.837Z,84.00
2019-04-27T05:54:58.747Z,83.81
2019-04-27T05:55:57.009Z,83.72
2019-04-27T05:57:59.284Z,84.58
2019-04-27T05:59:00.339Z,84.58
2019-04-27T06:01:01.432Z,83.53
2019-04-27T06:02:01.454Z,83.81
2019-04-27T06:04:03.700Z,83.91
2019-04-27T06:05:03.724Z,83.24
2019-04-27T06:07:05.974Z,82.95
2019-04-27T06:08:06.002Z,83.09
2019-04-27T06:10:09.577Z,82.61
2019-04-27T06:11:09.393Z,82.61
2019-04-27T06:13:10.648Z,82.32
2019-04-27T06:14:10.542Z,81.85
2019-04-27T06:16:12.688Z,80.90
2019-04-27T06:17:12.712Z,81.09
2019-04-27T06:19:14.858Z,81.09
2019-04-27T06:20:14.886Z,80.70
2019-04-27T06:22:17.047Z,80.70
2019-04-27T06:23:18.649Z,81.18
2019-04-27T06:25:21.495Z,81.13
2019-04-27T06:26:20.147Z,80.36
2019-04-27T06:28:11.330Z,79.79
2019-04-27T06:29:11.359Z,79.79
2019-04-27T06:31:13.607Z,79.12
2019-04-27T06:32:13.633Z,79.50
2019-04-27T06:34:16.007Z,79.02
2019-04-27T06:35:15.910Z,78.83
2019-04-27T06:37:19.367Z,78.74
2019-04-27T06:38:19.064Z,78.97
2019-04-27T06:40:20.433Z,79.06
2019-04-27T06:41:20.455Z,78.39
2019-04-27T06:43:22.596Z,78.58
2019-04-27T06:44:22.622Z,78.78
2019-04-27T06:46:24.788Z,78.87
2019-04-27T06:47:24.792Z,78.20
2019-04-27T06:49:26.937Z,78.78
2019-04-27T06:50:26.964Z,78.39
2019-04-27T06:52:29.432Z,78.58
2019-04-27T06:53:29.220Z,78.20
2019-04-27T06:55:31.379Z,77.82
2019-04-27T06:56:31.409Z,78.68
2019-04-27T06:58:23.417Z,78.20
2019-04-27T06:59:23.441Z,78.30
2019-04-27T07:01:25.684Z,78.97
2019-04-27T07:02:25.712Z,78.87
2019-04-27T07:04:29.397Z,78.87
2019-04-27T07:05:28.951Z,78.49
2019-04-27T07:07:30.039Z,78.49
2019-04-27T07:08:30.892Z,78.78
2019-04-27T07:10:32.199Z,78.58
2019-04-27T07:11:32.225Z,78.20
2019-04-27T07:13:34.607Z,78.30
2019-04-27T07:14:34.631Z,77.92
2019-04-27T07:16:36.749Z,78.11
2019-04-27T07:17:36.777Z,78.68
2019-04-27T07:19:39.719Z,78.93
2019-04-27T07:20:39.050Z,78.93
2019-04-27T07:22:41.216Z,78.93
2019-04-27T07:23:41.227Z,79.02
2019-04-27T07:25:43.461Z,78.16
2019-04-27T07:26:43.485Z,78.58
2019-04-27T07:28:35.595Z,78.78
2019-04-27T07:29:35.620Z,78.20
2019-04-27T07:31:39.785Z,78.20
2019-04-27T07:32:39.084Z,77.82
2019-04-27T07:34:40.061Z,77.92
2019-04-27T07:35:40.069Z,77.72
2019-04-27T07:37:42.212Z,76.96
2019-04-27T07:38:42.239Z,76.90
2019-04-27T07:40:44.485Z,76.62
2019-04-27T07:41:44.512Z,76.42
2019-04-27T07:43:46.654Z,76.33
2019-04-27T07:44:46.680Z,76.33
2019-04-27T07:46:49.843Z,76.71
2019-04-27T07:47:49.345Z,77.28
2019-04-27T07:49:51.199Z,77.00
2019-04-27T07:50:51.236Z,77.00
2019-04-27T07:52:53.497Z,77.48
2019-04-27T07:53:53.503Z,77.48
2019-04-27T07:54:53.555Z,76.96
2019-04-27T07:55:53.568Z,77.34
2019-04-27T07:56:53.601Z,77.38
2019-04-27T07:57:53.634Z,76.90
2019-04-27T07:58:53.668Z,77.19
2019-04-27T07:59:53.702Z,76.81
2019-04-27T08:00:53.731Z,76.90
2019-04-27T08:01:53.766Z,76.71
2019-04-27T08:02:53.797Z,76.33
2019-04-27T08:03:53.830Z,76.81
2019-04-27T08:04:53.863Z,77.28
2019-04-27T08:05:53.896Z,77.38
2019-04-27T08:06:53.929Z,77.19
2019-04-27T08:07:53.961Z,77.76
2019-04-27T08:08:53.997Z,77.38
2019-04-27T08:09:54.027Z,76.81
2019-04-27T08:10:54.061Z,76.71
2019-04-27T08:11:54.093Z,77.48
2019-04-27T08:12:54.123Z,76.52
2019-04-27T08:13:54.161Z,77.09
2019-04-27T08:14:54.193Z,77.19
2019-04-27T08:15:54.223Z,76.62
2019-04-27T08:16:54.255Z,76.62
2019-04-27T08:17:54.291Z,76.42
2019-04-27T08:18:54.323Z,76.04
2019-04-27T08:19:54.354Z,75.95
2019-04-27T08:20:56.922Z,75.95
2019-04-27T08:21:54.419Z,76.18
2019-04-27T08:22:54.452Z,75.70
2019-04-27T08:23:54.485Z,75.22
2019-04-27T08:24:54.519Z,75.51
2019-04-27T08:25:54.551Z,75.41
2019-04-27T08:26:54.583Z,75.70
2019-04-27T08:27:54.618Z,75.22
2019-04-27T08:28:54.649Z,74.84
2019-04-27T08:29:54.682Z,74.93
2019-04-27T08:30:54.731Z,75.12
2019-04-27T08:31:54.749Z,75.51
2019-04-27T08:32:54.782Z,75.60
2019-04-27T08:33:54.820Z,75.12
2019-04-27T08:34:54.848Z,75.79
2019-04-27T08:35:54.882Z,75.02
2019-04-27T08:36:54.913Z,75.12
2019-04-27T08:37:54.947Z,74.36
2019-04-27T08:38:54.979Z,74.87
2019-04-27T08:39:55.013Z,73.63
2019-04-27T08:40:55.047Z,73.54
2019-04-27T08:41:55.081Z,73.24
2019-04-27T08:42:55.810Z,72.96
2019-04-27T08:43:55.146Z,72.90
2019-04-27T08:44:55.178Z,72.71
2019-04-27T08:45:55.211Z,72.52
2019-04-27T08:46:55.245Z,72.13
2019-04-27T08:47:55.280Z,72.03
2019-04-27T08:48:55.312Z,71.69
2019-04-27T08:49:55.346Z,71.02
2019-04-27T08:50:55.378Z,70.73
2019-04-27T08:51:59.245Z,70.15
2019-04-27T08:52:55.446Z,69.04
2019-04-27T08:53:55.479Z,69.04
2019-04-27T08:54:55.512Z,68.56
2019-04-27T08:55:55.547Z,68.66
2019-04-27T08:56:55.579Z,68.50
2019-04-27T08:57:55.613Z,68.30
2019-04-27T08:58:55.649Z,67.25
2019-04-27T08:59:55.682Z,67.06
2019-04-27T09:00:55.716Z,65.62
2019-04-27T09:01:55.747Z,65.56
2019-04-27T09:02:55.783Z,65.43
2019-04-27T09:03:55.816Z,65.65
2019-04-27T09:04:55.851Z,64.79
2019-04-27T09:05:55.884Z,64.79
2019-04-27T09:06:55.952Z,64.59
2019-04-27T09:07:55.953Z,64.15
2019-04-27T09:08:55.989Z,63.86
2019-04-27T09:09:56.023Z,63.38
2019-04-27T09:10:56.054Z,63.86
2019-04-27T09:11:56.088Z,63.96
2019-04-27T09:12:56.121Z,63.96
2019-04-27T09:13:56.160Z,63.86
2019-04-27T09:14:56.192Z,62.61
2019-04-27T09:15:56.227Z,62.71
2019-04-27T09:17:00.011Z,62.42
2019-04-27T09:17:56.295Z,62.16
2019-04-27T09:18:56.329Z,61.65
2019-04-27T09:19:56.363Z,62.35
2019-04-27T09:20:56.405Z,61.97
2019-04-27T09:22:10.079Z,61.30
2019-04-27T09:22:56.466Z,60.82
2019-04-27T09:23:56.505Z,59.57
2019-04-27T09:24:56.536Z,59.47
2019-04-27T09:25:56.573Z,60.05
2019-04-27T09:26:56.839Z,59.69
2019-04-27T09:27:56.643Z,59.50
2019-04-27T09:28:56.675Z,59.12
2019-04-27T09:29:56.712Z,58.73
2019-04-27T09:30:58.245Z,57.22
2019-04-27T09:31:56.779Z,56.71
2019-04-27T09:32:56.814Z,57.22
2019-04-27T09:33:56.849Z,55.85
2019-04-27T09:34:57.053Z,56.04
2019-04-27T09:35:56.921Z,57.39
2019-04-27T09:36:56.957Z,57.39
2019-04-27T09:37:56.989Z,57.10
2019-04-27T09:38:57.025Z,56.71
2019-04-27T09:39:57.062Z,57.00
2019-04-27T09:40:58.089Z,57.29
2019-04-27T09:41:57.338Z,56.04
2019-04-27T09:42:57.367Z,55.49
2019-04-27T09:43:57.202Z,55.46
2019-04-27T09:44:57.234Z,53.83
2019-04-27T09:45:57.271Z,54.02
2019-04-27T09:46:57.306Z,53.25
2019-04-27T09:47:57.374Z,53.45
2019-04-27T09:48:57.374Z,53.92
2019-04-27T09:49:57.410Z,54.02
2019-04-27T09:50:57.445Z,54.69
2019-04-27T09:51:57.484Z,54.12
2019-04-27T09:52:57.515Z,53.83
2019-04-27T09:53:57.550Z,53.83
2019-04-27T09:54:57.585Z,53.74
2019-04-27T09:55:57.621Z,54.22
2019-04-27T09:56:57.655Z,54.02
2019-04-27T09:57:57.693Z,53.45
2019-04-27T09:58:57.726Z,52.39
2019-04-27T09:59:57.761Z,53.35
2019-04-27T10:00:57.796Z,53.74
2019-04-27T10:01:57.837Z,53.83
2019-04-27T10:02:57.868Z,53.47
2019-04-27T10:03:57.913Z,53.92
2019-04-27T10:04:57.938Z,53.86
2019-04-27T10:05:57.972Z,53.86
2019-04-27T10:06:58.009Z,53.09
2019-04-27T10:07:58.047Z,52.32
2019-04-27T10:08:58.104Z,51.74
2019-04-27T10:09:58.114Z,52.15
2019-04-27T10:10:58.153Z,52.25
2019-04-27T10:11:58.187Z,51.86
2019-04-27T10:12:58.220Z,51.67
2019-04-27T10:13:58.256Z,51.31
2019-04-27T10:14:58.290Z,50.45
2019-04-27T10:15:58.328Z,49.87
2019-04-27T10:16:58.362Z,48.13
2019-04-27T10:17:58.398Z,48.13
2019-04-27T10:18:58.434Z,48.23
2019-04-27T10:19:58.470Z,49.48
2019-04-27T10:21:01.934Z,50.06
2019-04-27T10:21:58.541Z,50.25
2019-04-27T10:22:58.577Z,50.25
2019-04-27T10:23:58.614Z,49.19
2019-04-27T10:24:58.650Z,47.75
2019-04-27T10:25:58.686Z,47.10
2019-04-27T10:26:58.720Z,46.91
2019-04-27T10:27:58.762Z,46.98
2019-04-27T10:28:58.790Z,46.98
2019-04-27T10:29:58.837Z,48.13
2019-04-27T10:30:58.862Z,48.33
2019-04-27T10:31:58.899Z,48.33
2019-04-27T10:32:58.936Z,48.33
2019-04-27T10:33:58.971Z,48.13
2019-04-27T10:34:59.006Z,48.23
2019-04-27T10:35:59.045Z,48.13
2019-04-27T10:36:59.077Z,48.81
2019-04-27T10:37:59.114Z,48.81
2019-04-27T10:38:59.149Z,49.10
2019-04-27T10:39:59.186Z,47.46
2019-04-27T10:40:59.221Z,45.75
2019-04-27T10:41:59.259Z,45.17
2019-04-27T10:42:59.293Z,45.46
2019-04-27T10:43:59.330Z,45.36
2019-04-27T10:44:59.365Z,45.84
2019-04-27T10:45:59.401Z,45.94
2019-04-27T10:46:59.437Z,45.36
2019-04-27T10:47:59.473Z,45.27
2019-04-27T10:48:59.508Z,44.31
2019-04-27T10:49:59.547Z,44.69
2019-04-27T10:50:59.581Z,44.59
2019-04-27T10:51:59.620Z,45.65
2019-04-27T10:52:59.654Z,45.27
2019-04-27T10:53:59.690Z,45.56
2019-04-27T10:54:59.725Z,44.02
2019-04-27T10:55:59.762Z,43.82
2019-04-27T10:56:59.797Z,44.21
2019-04-27T10:57:59.834Z,44.49
2019-04-27T10:58:59.871Z,44.49
2019-04-27T10:59:59.912Z,45.07
2019-04-27T11:00:59.943Z,45.17
2019-04-27T11:01:59.980Z,45.00
2019-04-27T11:03:00.045Z,43.94
2019-04-27T11:04:00.052Z,44.13
2019-04-27T11:05:00.087Z,44.52
2019-04-27T11:06:00.123Z,45.20
2019-04-27T11:07:00.207Z,44.06
2019-04-27T11:08:00.197Z,43.87
2019-04-27T11:09:00.233Z,43.87
2019-04-27T11:10:00.269Z,42.71
2019-04-27T11:11:00.306Z,42.23
2019-04-27T11:12:00.342Z,41.94
2019-04-27T11:13:00.380Z,42.32
2019-04-27T11:14:01.061Z,42.23
2019-04-27T11:15:00.453Z,42.30
2019-04-27T11:16:00.489Z,42.49
2019-04-27T11:17:00.523Z,42.03
2019-04-27T11:18:00.559Z,41.75
2019-04-27T11:19:00.596Z,42.03
2019-04-27T11:20:02.752Z,41.07
2019-04-27T11:21:00.668Z,41.36
2019-04-27T11:22:00.707Z,41.19
2019-04-27T11:23:07.078Z,41.19
2019-04-27T11:24:00.781Z,42.25
2019-04-27T11:25:00.815Z,40.42
2019-04-27T11:26:02.482Z,40.61
2019-04-27T11:27:00.887Z,40.92
2019-04-27T11:28:00.925Z,41.20
2019-04-27T11:29:00.961Z,40.63
2019-04-27T11:30:01.001Z,40.63
2019-04-27T11:31:01.034Z,40.34
2019-04-27T11:32:01.071Z,39.11
2019-04-27T11:33:01.107Z,38.43
2019-04-27T11:34:01.144Z,38.71
2019-04-27T11:35:01.181Z,39.29
2019-04-27T11:36:01.218Z,39.12
2019-04-27T11:37:01.255Z,38.45
2019-04-27T11:38:01.291Z,38.08
2019-04-27T11:39:01.328Z,37.79
2019-04-27T11:40:01.367Z,37.60
2019-04-27T11:41:01.403Z,37.70
2019-04-27T11:42:01.440Z,37.30
2019-04-27T11:43:01.476Z,37.21
2019-04-27T11:44:01.513Z,37.60
2019-04-27T11:45:01.554Z,37.30
2019-04-27T11:46:01.587Z,37.70
2019-04-27T11:47:01.630Z,37.70
2019-04-27T11:48:01.663Z,37.40
2019-04-27T11:49:01.701Z,37.40
2019-04-27T11:50:01.737Z,37.21
2019-04-27T11:51:01.779Z,37.12
2019-04-27T11:52:01.810Z,36.92
2019-04-27T11:53:01.847Z,36.44
2019-04-27T11:54:01.887Z,36.74
2019-04-27T11:55:01.941Z,37.02
2019-04-27T11:56:02.002Z,36.55
2019-04-27T11:57:01.997Z,35.10
2019-04-27T11:58:02.034Z,34.13
2019-04-27T11:59:02.073Z,34.62
2019-04-27T12:00:02.112Z,35.68
2019-04-27T12:01:02.147Z,36.36
2019-04-27T12:02:02.182Z,36.65
2019-04-27T12:03:02.221Z,36.84
2019-04-27T12:04:02.260Z,37.52
2019-04-27T12:05:02.297Z,37.44
2019-04-27T12:06:02.335Z,35.80
2019-04-27T12:07:02.373Z,35.21
2019-04-27T12:08:02.411Z,35.70
2019-04-27T12:09:02.447Z,35.12
2019-04-27T12:10:02.483Z,35.80
2019-04-27T12:11:02.521Z,35.62
2019-04-27T12:12:13.559Z,35.52
2019-04-27T12:13:02.603Z,34.94
2019-04-27T12:14:02.633Z,35.72
2019-04-27T12:15:02.676Z,34.17
2019-04-27T12:16:02.710Z,34.86
2019-04-27T12:17:02.748Z,34.19
2019-04-27T12:18:02.792Z,33.99
2019-04-27T12:19:02.825Z,33.12
2019-04-27T12:20:02.860Z,33.70
2019-04-27T12:21:02.898Z,33.99
2019-04-27T12:22:02.936Z,34.86
2019-04-27T12:23:02.976Z,34.57
2019-04-27T12:24:03.012Z,33.59
2019-04-27T12:25:03.050Z,32.33
2019-04-27T12:26:03.089Z,33.20
2019-04-27T12:27:03.127Z,33.76
2019-04-27T12:28:03.167Z,34.15
2019-04-27T12:29:03.202Z,33.76
2019-04-27T12:30:03.239Z,34.44
2019-04-27T12:31:03.280Z,33.86
2019-04-27T12:32:03.317Z,33.57
2019-04-27T12:33:03.354Z,33.45
2019-04-27T12:34:03.393Z,34.21
2019-04-27T12:35:03.431Z,35.28
2019-04-27T12:36:03.469Z,35.57
2019-04-27T12:37:03.511Z,35.57
2019-04-27T12:38:03.543Z,36.24
2019-04-27T12:39:05.431Z,36.34
2019-04-27T12:40:03.620Z,35.08
2019-04-27T12:41:03.654Z,34.02
2019-04-27T12:42:03.696Z,33.05
2019-04-27T12:43:03.734Z,32.38
2019-04-27T12:44:03.772Z,32.47
2019-04-27T12:45:03.812Z,32.65
2019-04-27T12:46:03.845Z,34.00
2019-04-27T12:47:03.886Z,34.68
2019-04-27T12:48:03.922Z,33.91
2019-04-27T12:49:05.840Z,33.14
2019-04-27T12:50:03.996Z,33.81
2019-04-27T12:51:04.037Z,34.10
2019-04-27T12:52:05.787Z,33.02
2019-04-27T12:53:04.110Z,33.50
2019-04-27T12:54:05.866Z,34.28
2019-04-27T12:55:04.185Z,34.28
2019-04-27T12:56:04.222Z,33.60
2019-04-27T12:57:05.864Z,33.60
2019-04-27T12:58:06.232Z,33.78
2019-04-27T12:59:04.336Z,34.55
2019-04-27T13:00:04.373Z,34.74
2019-04-27T13:01:07.323Z,34.36
2019-04-27T13:02:06.224Z,34.94
2019-04-27T13:03:06.092Z,34.74
2019-04-27T13:04:04.521Z,35.61
2019-04-27T13:05:05.750Z,35.69
2019-04-27T13:06:04.596Z,35.69
2019-04-27T13:07:05.913Z,35.40
2019-04-27T13:08:04.670Z,35.88
2019-04-27T13:09:04.708Z,35.98
2019-04-27T13:10:05.682Z,36.25
2019-04-27T13:11:05.996Z,36.73
2019-04-27T13:12:04.818Z,36.93
2019-04-27T13:13:06.347Z,36.91
2019-04-27T13:14:06.188Z,37.48
2019-04-27T13:15:04.931Z,37.56
2019-04-27T13:16:06.514Z,38.14
2019-04-27T13:17:06.270Z,38.60
2019-04-27T13:18:05.611Z,39.18
2019-04-27T13:19:06.146Z,38.99
2019-04-27T13:20:06.310Z,39.74
2019-04-27T13:21:05.156Z,40.61
2019-04-27T13:22:06.188Z,40.41
2019-04-27T13:23:07.164Z,40.80
2019-04-27T13:24:07.002Z,40.99
2019-04-27T13:25:05.765Z,41.28
2019-04-27T13:26:06.261Z,41.08
2019-04-27T13:27:06.459Z,40.22
2019-04-27T13:28:05.720Z,39.45
2019-04-27T13:29:06.750Z,39.54
2019-04-27T13:30:07.331Z,39.45
2019-04-27T13:31:06.706Z,39.74
2019-04-27T13:32:06.010Z,39.54
2019-04-27T13:33:05.589Z,39.54
2019-04-27T13:34:05.809Z,39.54
2019-04-27T13:35:05.821Z,39.06
2019-04-27T13:36:07.490Z,38.87
2019-04-27T13:37:05.738Z,38.87
2019-04-27T13:38:05.771Z,39.16
2019-04-27T13:39:06.319Z,38.68
2019-04-27T13:40:09.377Z,39.06
2019-04-27T13:41:06.014Z,38.97
2019-04-27T13:42:06.616Z,39.45
2019-04-27T13:43:07.581Z,40.41
2019-04-27T13:44:06.545Z,40.41
2019-04-27T13:45:06.087Z,40.61
2019-04-27T13:46:08.006Z,40.89
2019-04-27T13:47:06.228Z,40.51
2019-04-27T13:48:06.147Z,40.58
2019-04-27T13:49:06.170Z,41.16
2019-04-27T13:50:06.530Z,40.78
2019-04-27T13:51:06.646Z,41.06
2019-04-27T13:52:06.279Z,41.06
2019-04-27T13:53:08.336Z,40.68
2019-04-27T13:54:17.104Z,40.66
2019-04-27T13:55:06.384Z,41.45
2019-04-27T13:56:06.496Z,41.93
2019-04-27T13:57:07.613Z,41.83
2019-04-27T13:58:06.494Z,42.12
2019-04-27T13:59:07.689Z,41.74
2019-04-27T14:00:06.568Z,41.64
2019-04-27T14:01:06.602Z,41.16
2019-04-27T14:02:06.638Z,41.64
2019-04-27T14:03:06.672Z,41.64
2019-04-27T14:04:07.070Z,42.03
2019-04-27T14:05:06.745Z,42.43
2019-04-27T14:06:08.098Z,41.66
2019-04-27T14:07:06.820Z,41.45
2019-04-27T14:08:06.852Z,40.97
2019-04-27T14:09:06.887Z,40.78
2019-04-27T14:10:06.923Z,39.62
2019-04-27T14:11:06.959Z,39.53
2019-04-27T14:12:06.998Z,39.72
2019-04-27T14:13:08.814Z,39.43
2019-04-27T14:14:07.065Z,39.62
2019-04-27T14:15:08.645Z,40.11
2019-04-27T14:16:08.695Z,40.37
2019-04-27T14:17:07.887Z,41.16
2019-04-27T14:18:08.375Z,41.45
2019-04-27T14:19:08.607Z,42.03
2019-04-27T14:20:08.014Z,42.50
2019-04-27T14:21:09.325Z,42.58
2019-04-27T14:22:09.116Z,42.60
2019-04-27T14:23:08.329Z,42.60
2019-04-27T14:24:07.424Z,43.08
2019-04-27T14:25:08.621Z,42.32
2019-04-27T14:26:08.834Z,41.26
2019-04-27T14:27:07.532Z,41.55
2019-04-27T14:28:08.522Z,41.64
2019-04-27T14:29:08.725Z,41.74
2019-04-27T14:30:09.087Z,41.55
2019-04-27T14:31:08.959Z,42.12
2019-04-27T14:32:08.676Z,41.26
2019-04-27T14:33:08.487Z,40.88
2019-04-27T14:34:09.141Z,41.06
2019-04-27T14:35:08.435Z,41.45
2019-04-27T14:36:08.250Z,41.45
2019-04-27T14:37:08.663Z,41.93
2019-04-27T14:38:09.134Z,41.83
2019-04-27T14:39:08.374Z,41.47
2019-04-27T14:40:08.432Z,41.76
2019-04-27T14:41:09.081Z,41.86
2019-04-27T14:42:08.399Z,41.28
2019-04-27T14:43:08.550Z,41.59
2019-04-27T14:44:10.224Z,40.81
2019-04-27T14:45:08.983Z,40.43
2019-04-27T14:46:08.251Z,39.86
2019-04-27T14:47:08.295Z,38.99
2019-04-27T14:48:08.401Z,39.56
2019-04-27T14:49:08.317Z,39.86
2019-04-27T14:50:08.840Z,39.47
2019-04-27T14:51:08.846Z,38.99
2019-04-27T14:52:09.587Z,39.09
2019-04-27T14:53:08.903Z,39.28
2019-04-27T14:54:09.304Z,38.99
2019-04-27T14:55:08.744Z,39.18
2019-04-27T14:56:08.918Z,40.31
2019-04-27T14:57:09.160Z,40.34
2019-04-27T14:58:08.861Z,39.86
2019-04-27T14:59:08.676Z,39.66
2019-04-27T15:00:10.214Z,40.41
2019-04-27T15:01:08.750Z,40.51
2019-04-27T15:02:08.826Z,40.34
2019-04-27T15:03:08.820Z,40.63
2019-04-27T15:04:08.856Z,39.37
2019-04-27T15:05:08.893Z,39.18
2019-04-27T15:06:08.926Z,39.09
2019-04-27T15:07:08.964Z,39.28
2019-04-27T15:08:09.922Z,38.89